sensor_id;sensor_type;location;lat;lon;timestamp;temperature;humidity
24338;DHT22;12457;50.832;4.346;2023-05-07T00:00:16;17.60;99.90
24338;DHT22;12457;50.832;4.346;2023-05-07T00:02:47;17.60;99.90
24338;DHT22;12457;50.832;4.346;2023-05-07T00:05:13;17.70;99.90
24338;DHT22;12457;50.832;4.346;2023-05-07T00:07:39;17.70;99.90
24338;DHT22;12457;50.832;4.346;2023-05-07T00:10:06;17.70;99.90
24338;DHT22;12457;50.832;4.346;2023-05-07T00:12:32;17.70;99.90
24338;DHT22;12457;50.832;4.346;2023-05-07T00:15:02;17.80;99.90
24338;DHT22;12457;50.832;4.346;2023-05-07T00:17:29;17.80;99.90
24338;DHT22;12457;50.832;4.346;2023-05-07T00:23:18;17.80;99.90
24338;DHT22;12457;50.832;4.346;2023-05-07T00:25:43;17.60;99.90
24338;DHT22;12457;50.832;4.346;2023-05-07T00:28:09;17.50;99.90
24338;DHT22;12457;50.832;4.346;2023-05-07T00:30:35;17.70;99.90
24338;DHT22;12457;50.832;4.346;2023-05-07T00:33:00;17.60;99.90
24338;DHT22;12457;50.832;4.346;2023-05-07T00:35:26;17.50;99.90
24338;DHT22;12457;50.832;4.346;2023-05-07T00:37:52;17.60;99.90
24338;DHT22;12457;50.832;4.346;2023-05-07T00:40:17;17.60;99.90
24338;DHT22;12457;50.832;4.346;2023-05-07T00:42:43;17.60;99.90
24338;DHT22;12457;50.832;4.346;2023-05-07T00:45:13;17.60;99.90
24338;DHT22;12457;50.832;4.346;2023-05-07T00:47:39;17.60;99.90
24338;DHT22;12457;50.832;4.346;2023-05-07T00:50:07;17.50;99.90
24338;DHT22;12457;50.832;4.346;2023-05-07T00:52:33;17.60;99.90
24338;DHT22;12457;50.832;4.346;2023-05-07T00:55:05;17.60;99.90
24338;DHT22;12457;50.832;4.346;2023-05-07T00:57:35;17.60;99.90
24338;DHT22;12457;50.832;4.346;2023-05-07T01:00:04;17.60;99.90
24338;DHT22;12457;50.832;4.346;2023-05-07T01:02:30;17.40;99.90
24338;DHT22;12457;50.832;4.346;2023-05-07T01:05:12;17.40;99.90
24338;DHT22;12457;50.832;4.346;2023-05-07T01:07:40;17.30;99.90
24338;DHT22;12457;50.832;4.346;2023-05-07T01:10:07;17.40;99.90
24338;DHT22;12457;50.832;4.346;2023-05-07T01:12:34;17.40;99.90
24338;DHT22;12457;50.832;4.346;2023-05-07T01:15:01;17.40;99.90
24338;DHT22;12457;50.832;4.346;2023-05-07T01:17:27;17.40;99.90
24338;DHT22;12457;50.832;4.346;2023-05-07T01:19:53;17.50;99.90
24338;DHT22;12457;50.832;4.346;2023-05-07T01:22:45;17.50;99.90
24338;DHT22;12457;50.832;4.346;2023-05-07T01:25:13;17.50;99.90
24338;DHT22;12457;50.832;4.346;2023-05-07T01:27:41;17.50;99.90
24338;DHT22;12457;50.832;4.346;2023-05-07T01:30:07;17.40;99.90
24338;DHT22;12457;50.832;4.346;2023-05-07T01:35:07;17.40;99.90
24338;DHT22;12457;50.832;4.346;2023-05-07T01:37:34;17.40;99.90
24338;DHT22;12457;50.832;4.346;2023-05-07T01:40:01;17.20;99.90
24338;DHT22;12457;50.832;4.346;2023-05-07T01:42:28;17.20;99.90
24338;DHT22;12457;50.832;4.346;2023-05-07T01:44:55;17.10;99.90
24338;DHT22;12457;50.832;4.346;2023-05-07T01:47:21;17.10;99.90
24338;DHT22;12457;50.832;4.346;2023-05-07T01:49:47;17.00;99.90
24338;DHT22;12457;50.832;4.346;2023-05-07T01:52:13;17.10;99.90
24338;DHT22;12457;50.832;4.346;2023-05-07T01:54:39;17.10;99.90
24338;DHT22;12457;50.832;4.346;2023-05-07T01:57:05;17.10;99.90
24338;DHT22;12457;50.832;4.346;2023-05-07T01:59:30;17.10;99.90
24338;DHT22;12457;50.832;4.346;2023-05-07T02:01:57;17.10;99.90
24338;DHT22;12457;50.832;4.346;2023-05-07T02:04:23;17.00;99.90
24338;DHT22;12457;50.832;4.346;2023-05-07T02:06:51;16.90;99.90
24338;DHT22;12457;50.832;4.346;2023-05-07T02:09:18;16.90;99.90
24338;DHT22;12457;50.832;4.346;2023-05-07T02:11:44;17.00;99.90
24338;DHT22;12457;50.832;4.346;2023-05-07T02:14:10;16.90;99.90
24338;DHT22;12457;50.832;4.346;2023-05-07T02:16:37;16.90;99.90
24338;DHT22;12457;50.832;4.346;2023-05-07T02:19:07;16.90;99.90
24338;DHT22;12457;50.832;4.346;2023-05-07T02:21:34;16.90;99.90
24338;DHT22;12457;50.832;4.346;2023-05-07T02:24:00;17.00;99.90
24338;DHT22;12457;50.832;4.346;2023-05-07T02:26:27;17.00;99.90
24338;DHT22;12457;50.832;4.346;2023-05-07T02:28:53;17.00;99.90
24338;DHT22;12457;50.832;4.346;2023-05-07T02:31:19;16.90;99.90
24338;DHT22;12457;50.832;4.346;2023-05-07T02:36:57;16.70;99.90
24338;DHT22;12457;50.832;4.346;2023-05-07T02:39:23;16.80;99.90
24338;DHT22;12457;50.832;4.346;2023-05-07T02:41:48;16.80;99.90
24338;DHT22;12457;50.832;4.346;2023-05-07T02:44:14;16.70;99.90
24338;DHT22;12457;50.832;4.346;2023-05-07T02:46:41;16.70;99.90
24338;DHT22;12457;50.832;4.346;2023-05-07T02:49:08;16.60;99.90
24338;DHT22;12457;50.832;4.346;2023-05-07T02:51:34;16.60;99.90
24338;DHT22;12457;50.832;4.346;2023-05-07T02:54:01;16.50;99.90
24338;DHT22;12457;50.832;4.346;2023-05-07T02:56:27;16.60;99.90
24338;DHT22;12457;50.832;4.346;2023-05-07T02:58:52;16.50;99.90
24338;DHT22;12457;50.832;4.346;2023-05-07T03:01:18;16.50;99.90
24338;DHT22;12457;50.832;4.346;2023-05-07T03:03:44;16.60;99.90
24338;DHT22;12457;50.832;4.346;2023-05-07T03:06:15;16.60;99.90
24338;DHT22;12457;50.832;4.346;2023-05-07T03:08:41;16.60;99.90
24338;DHT22;12457;50.832;4.346;2023-05-07T03:11:06;16.70;99.90
24338;DHT22;12457;50.832;4.346;2023-05-07T03:13:32;16.70;99.90
24338;DHT22;12457;50.832;4.346;2023-05-07T03:15:58;16.70;99.90
24338;DHT22;12457;50.832;4.346;2023-05-07T03:18:23;16.70;99.90
24338;DHT22;12457;50.832;4.346;2023-05-07T03:20:49;16.60;99.90
24338;DHT22;12457;50.832;4.346;2023-05-07T03:23:15;16.60;99.90
24338;DHT22;12457;50.832;4.346;2023-05-07T03:25:40;16.60;99.90
24338;DHT22;12457;50.832;4.346;2023-05-07T03:28:06;16.60;99.90
24338;DHT22;12457;50.832;4.346;2023-05-07T03:30:32;16.70;99.90
24338;DHT22;12457;50.832;4.346;2023-05-07T03:32:57;16.80;99.90
24338;DHT22;12457;50.832;4.346;2023-05-07T03:35:29;16.90;99.90
24338;DHT22;12457;50.832;4.346;2023-05-07T03:37:55;17.00;99.90
24338;DHT22;12457;50.832;4.346;2023-05-07T03:40:21;17.10;99.90
24338;DHT22;12457;50.832;4.346;2023-05-07T03:42:47;17.20;99.90
24338;DHT22;12457;50.832;4.346;2023-05-07T03:45:14;17.20;99.90
24338;DHT22;12457;50.832;4.346;2023-05-07T03:47:40;17.40;99.90
24338;DHT22;12457;50.832;4.346;2023-05-07T03:50:06;17.40;99.90
24338;DHT22;12457;50.832;4.346;2023-05-07T03:52:33;17.40;99.90
24338;DHT22;12457;50.832;4.346;2023-05-07T03:55:00;17.30;99.90
24338;DHT22;12457;50.832;4.346;2023-05-07T03:57:25;17.20;99.90
24338;DHT22;12457;50.832;4.346;2023-05-07T03:59:51;17.20;99.90
24338;DHT22;12457;50.832;4.346;2023-05-07T04:02:16;17.20;99.90
24338;DHT22;12457;50.832;4.346;2023-05-07T04:05:10;17.30;99.90
24338;DHT22;12457;50.832;4.346;2023-05-07T04:07:37;17.40;99.90
24338;DHT22;12457;50.832;4.346;2023-05-07T04:10:03;17.40;99.90
24338;DHT22;12457;50.832;4.346;2023-05-07T04:12:30;17.40;99.90
24338;DHT22;12457;50.832;4.346;2023-05-07T04:14:57;17.40;99.90
24338;DHT22;12457;50.832;4.346;2023-05-07T04:17:22;17.50;99.90
24338;DHT22;12457;50.832;4.346;2023-05-07T04:19:48;17.50;99.90
24338;DHT22;12457;50.832;4.346;2023-05-07T04:22:14;17.50;99.90
24338;DHT22;12457;50.832;4.346;2023-05-07T04:24:40;17.50;99.90
24338;DHT22;12457;50.832;4.346;2023-05-07T04:27:05;17.60;99.90
24338;DHT22;12457;50.832;4.346;2023-05-07T04:29:33;17.70;99.90
24338;DHT22;12457;50.832;4.346;2023-05-07T04:32:02;17.80;99.90
24338;DHT22;12457;50.832;4.346;2023-05-07T04:34:39;17.70;99.90
24338;DHT22;12457;50.832;4.346;2023-05-07T04:37:05;17.70;99.90
24338;DHT22;12457;50.832;4.346;2023-05-07T04:39:32;17.70;99.90
24338;DHT22;12457;50.832;4.346;2023-05-07T04:41:59;17.50;99.90
24338;DHT22;12457;50.832;4.346;2023-05-07T04:44:26;17.60;99.90
24338;DHT22;12457;50.832;4.346;2023-05-07T04:46:51;17.60;99.90
24338;DHT22;12457;50.832;4.346;2023-05-07T04:49:17;17.60;99.90
24338;DHT22;12457;50.832;4.346;2023-05-07T04:54:55;17.60;99.90
24338;DHT22;12457;50.832;4.346;2023-05-07T04:57:21;17.80;99.90
24338;DHT22;12457;50.832;4.346;2023-05-07T04:59:46;17.70;99.90
24338;DHT22;12457;50.832;4.346;2023-05-07T05:02:12;17.80;99.90
24338;DHT22;12457;50.832;4.346;2023-05-07T05:04:38;17.70;99.90
24338;DHT22;12457;50.832;4.346;2023-05-07T05:07:03;17.70;99.90
24338;DHT22;12457;50.832;4.346;2023-05-07T05:09:29;17.70;99.90
24338;DHT22;12457;50.832;4.346;2023-05-07T05:11:55;17.60;99.90
24338;DHT22;12457;50.832;4.346;2023-05-07T05:14:22;17.70;99.90
24338;DHT22;12457;50.832;4.346;2023-05-07T05:16:48;17.90;99.90
24338;DHT22;12457;50.832;4.346;2023-05-07T05:19:14;18.10;99.90
24338;DHT22;12457;50.832;4.346;2023-05-07T05:21:40;18.20;99.90
24338;DHT22;12457;50.832;4.346;2023-05-07T05:24:06;18.30;99.90
24338;DHT22;12457;50.832;4.346;2023-05-07T05:26:32;18.50;99.90
24338;DHT22;12457;50.832;4.346;2023-05-07T05:28:57;18.60;99.90
24338;DHT22;12457;50.832;4.346;2023-05-07T05:31:23;18.60;99.90
24338;DHT22;12457;50.832;4.346;2023-05-07T05:33:49;18.50;99.90
24338;DHT22;12457;50.832;4.346;2023-05-07T05:36:15;18.40;99.90
24338;DHT22;12457;50.832;4.346;2023-05-07T05:38:42;18.40;99.90
24338;DHT22;12457;50.832;4.346;2023-05-07T05:41:08;18.50;99.90
24338;DHT22;12457;50.832;4.346;2023-05-07T05:43:33;18.60;99.90
24338;DHT22;12457;50.832;4.346;2023-05-07T05:45:59;18.60;99.90
24338;DHT22;12457;50.832;4.346;2023-05-07T05:48:25;18.60;99.90
24338;DHT22;12457;50.832;4.346;2023-05-07T05:50:51;18.70;99.90
24338;DHT22;12457;50.832;4.346;2023-05-07T05:53:18;18.90;99.90
24338;DHT22;12457;50.832;4.346;2023-05-07T05:55:44;19.00;99.90
24338;DHT22;12457;50.832;4.346;2023-05-07T05:58:10;18.80;99.90
24338;DHT22;12457;50.832;4.346;2023-05-07T06:00:36;18.70;99.90
24338;DHT22;12457;50.832;4.346;2023-05-07T06:03:02;18.60;99.90
24338;DHT22;12457;50.832;4.346;2023-05-07T06:05:28;18.50;99.90
24338;DHT22;12457;50.832;4.346;2023-05-07T06:07:53;18.50;99.90
24338;DHT22;12457;50.832;4.346;2023-05-07T06:10:19;18.50;99.90
24338;DHT22;12457;50.832;4.346;2023-05-07T06:12:47;18.40;99.90
24338;DHT22;12457;50.832;4.346;2023-05-07T06:15:12;18.20;99.90
24338;DHT22;12457;50.832;4.346;2023-05-07T06:17:38;18.20;99.90
24338;DHT22;12457;50.832;4.346;2023-05-07T06:20:04;18.20;99.90
24338;DHT22;12457;50.832;4.346;2023-05-07T06:22:35;18.10;99.90
24338;DHT22;12457;50.832;4.346;2023-05-07T06:25:01;18.00;99.90
24338;DHT22;12457;50.832;4.346;2023-05-07T06:27:27;18.00;99.90
24338;DHT22;12457;50.832;4.346;2023-05-07T06:29:53;18.00;99.90
24338;DHT22;12457;50.832;4.346;2023-05-07T06:32:19;18.10;99.90
24338;DHT22;12457;50.832;4.346;2023-05-07T06:34:45;18.10;99.90
24338;DHT22;12457;50.832;4.346;2023-05-07T06:37:11;18.00;99.90
24338;DHT22;12457;50.832;4.346;2023-05-07T06:39:37;18.10;99.90
24338;DHT22;12457;50.832;4.346;2023-05-07T06:42:03;18.10;99.90
24338;DHT22;12457;50.832;4.346;2023-05-07T06:44:30;18.20;99.90
24338;DHT22;12457;50.832;4.346;2023-05-07T06:46:58;18.10;99.90
24338;DHT22;12457;50.832;4.346;2023-05-07T06:49:25;18.10;99.90
24338;DHT22;12457;50.832;4.346;2023-05-07T06:51:55;18.00;99.90
24338;DHT22;12457;50.832;4.346;2023-05-07T06:54:22;17.90;99.90
24338;DHT22;12457;50.832;4.346;2023-05-07T06:56:48;17.80;99.90
24338;DHT22;12457;50.832;4.346;2023-05-07T06:59:13;17.90;99.90
24338;DHT22;12457;50.832;4.346;2023-05-07T07:01:39;17.80;99.90
24338;DHT22;12457;50.832;4.346;2023-05-07T07:04:05;17.70;99.90
24338;DHT22;12457;50.832;4.346;2023-05-07T07:06:32;17.70;99.90
24338;DHT22;12457;50.832;4.346;2023-05-07T07:08:59;17.60;99.90
24338;DHT22;12457;50.832;4.346;2023-05-07T07:11:25;17.50;99.90
24338;DHT22;12457;50.832;4.346;2023-05-07T07:13:51;17.50;99.90
24338;DHT22;12457;50.832;4.346;2023-05-07T07:16:17;17.50;99.90
24338;DHT22;12457;50.832;4.346;2023-05-07T07:18:44;17.50;99.90
24338;DHT22;12457;50.832;4.346;2023-05-07T07:21:10;17.40;99.90
24338;DHT22;12457;50.832;4.346;2023-05-07T07:23:35;17.40;99.90
24338;DHT22;12457;50.832;4.346;2023-05-07T07:26:01;17.40;99.90
24338;DHT22;12457;50.832;4.346;2023-05-07T07:28:27;17.40;99.90
24338;DHT22;12457;50.832;4.346;2023-05-07T07:30:52;17.30;99.90
24338;DHT22;12457;50.832;4.346;2023-05-07T07:33:21;17.40;99.90
24338;DHT22;12457;50.832;4.346;2023-05-07T07:35:51;17.40;99.90
24338;DHT22;12457;50.832;4.346;2023-05-07T07:38:16;17.30;99.90
24338;DHT22;12457;50.832;4.346;2023-05-07T07:40:42;17.30;99.90
24338;DHT22;12457;50.832;4.346;2023-05-07T07:43:09;17.30;99.90
24338;DHT22;12457;50.832;4.346;2023-05-07T07:45:36;17.40;99.90
24338;DHT22;12457;50.832;4.346;2023-05-07T07:48:01;17.40;99.90
24338;DHT22;12457;50.832;4.346;2023-05-07T07:50:27;17.30;99.90
24338;DHT22;12457;50.832;4.346;2023-05-07T07:52:58;17.10;99.90
24338;DHT22;12457;50.832;4.346;2023-05-07T07:55:24;16.80;99.90
24338;DHT22;12457;50.832;4.346;2023-05-07T07:57:49;16.70;99.90
24338;DHT22;12457;50.832;4.346;2023-05-07T08:00:16;16.80;99.90
24338;DHT22;12457;50.832;4.346;2023-05-07T08:02:41;16.80;99.90
24338;DHT22;12457;50.832;4.346;2023-05-07T08:05:09;16.70;99.90
24338;DHT22;12457;50.832;4.346;2023-05-07T08:07:35;16.80;99.90
24338;DHT22;12457;50.832;4.346;2023-05-07T08:10:00;16.90;99.90
24338;DHT22;12457;50.832;4.346;2023-05-07T08:12:27;16.90;99.90
24338;DHT22;12457;50.832;4.346;2023-05-07T08:14:53;16.90;99.90
24338;DHT22;12457;50.832;4.346;2023-05-07T08:17:19;16.80;99.90
24338;DHT22;12457;50.832;4.346;2023-05-07T08:19:47;16.70;99.90
24338;DHT22;12457;50.832;4.346;2023-05-07T08:22:17;16.90;99.90
24338;DHT22;12457;50.832;4.346;2023-05-07T08:24:43;17.20;99.90
24338;DHT22;12457;50.832;4.346;2023-05-07T08:27:11;17.20;99.90
24338;DHT22;12457;50.832;4.346;2023-05-07T08:29:37;17.00;99.90
24338;DHT22;12457;50.832;4.346;2023-05-07T08:32:06;16.80;99.90
24338;DHT22;12457;50.832;4.346;2023-05-07T08:34:31;16.60;99.90
24338;DHT22;12457;50.832;4.346;2023-05-07T08:36:57;16.70;99.90
24338;DHT22;12457;50.832;4.346;2023-05-07T08:39:25;16.60;99.90
24338;DHT22;12457;50.832;4.346;2023-05-07T08:41:55;16.60;99.90
24338;DHT22;12457;50.832;4.346;2023-05-07T08:44:26;16.60;99.90
24338;DHT22;12457;50.832;4.346;2023-05-07T08:46:53;16.90;99.90
24338;DHT22;12457;50.832;4.346;2023-05-07T08:49:21;17.00;99.90
24338;DHT22;12457;50.832;4.346;2023-05-07T08:51:47;17.00;99.90
24338;DHT22;12457;50.832;4.346;2023-05-07T08:54:15;17.10;99.90
24338;DHT22;12457;50.832;4.346;2023-05-07T08:56:41;17.10;99.90
24338;DHT22;12457;50.832;4.346;2023-05-07T08:59:09;17.20;99.90
24338;DHT22;12457;50.832;4.346;2023-05-07T09:01:34;17.20;99.90
24338;DHT22;12457;50.832;4.346;2023-05-07T09:04:01;17.30;99.90
24338;DHT22;12457;50.832;4.346;2023-05-07T09:06:27;17.30;99.90
24338;DHT22;12457;50.832;4.346;2023-05-07T09:08:54;17.40;99.90
24338;DHT22;12457;50.832;4.346;2023-05-07T09:11:23;17.50;99.90
24338;DHT22;12457;50.832;4.346;2023-05-07T09:13:56;17.60;99.90
24338;DHT22;12457;50.832;4.346;2023-05-07T09:16:24;17.60;99.90
24338;DHT22;12457;50.832;4.346;2023-05-07T09:18:54;17.60;99.90
24338;DHT22;12457;50.832;4.346;2023-05-07T09:21:21;17.70;99.90
24338;DHT22;12457;50.832;4.346;2023-05-07T09:23:52;17.90;99.90
24338;DHT22;12457;50.832;4.346;2023-05-07T09:26:18;18.10;99.90
24338;DHT22;12457;50.832;4.346;2023-05-07T09:28:44;18.00;99.90
24338;DHT22;12457;50.832;4.346;2023-05-07T09:31:12;18.20;99.90
24338;DHT22;12457;50.832;4.346;2023-05-07T09:33:39;18.30;99.90
24338;DHT22;12457;50.832;4.346;2023-05-07T09:36:06;18.40;99.90
24338;DHT22;12457;50.832;4.346;2023-05-07T09:38:34;18.40;99.90
24338;DHT22;12457;50.832;4.346;2023-05-07T09:41:11;18.40;99.90
24338;DHT22;12457;50.832;4.346;2023-05-07T09:43:39;18.40;99.90
24338;DHT22;12457;50.832;4.346;2023-05-07T09:46:12;18.50;99.90
24338;DHT22;12457;50.832;4.346;2023-05-07T09:48:39;18.40;99.90
24338;DHT22;12457;50.832;4.346;2023-05-07T09:53:50;18.50;99.90
24338;DHT22;12457;50.832;4.346;2023-05-07T09:56:17;18.60;99.90
24338;DHT22;12457;50.832;4.346;2023-05-07T09:58:45;18.70;99.90
24338;DHT22;12457;50.832;4.346;2023-05-07T10:01:12;18.50;99.90
24338;DHT22;12457;50.832;4.346;2023-05-07T10:03:41;18.60;99.90
24338;DHT22;12457;50.832;4.346;2023-05-07T10:06:09;18.70;99.90
24338;DHT22;12457;50.832;4.346;2023-05-07T10:08:36;18.80;99.90
24338;DHT22;12457;50.832;4.346;2023-05-07T10:11:04;18.80;99.90
24338;DHT22;12457;50.832;4.346;2023-05-07T10:13:30;18.70;99.90
24338;DHT22;12457;50.832;4.346;2023-05-07T10:15:57;18.60;99.90
24338;DHT22;12457;50.832;4.346;2023-05-07T10:18:23;18.60;99.90
24338;DHT22;12457;50.832;4.346;2023-05-07T10:20:54;18.50;99.90
24338;DHT22;12457;50.832;4.346;2023-05-07T10:23:31;18.50;99.90
24338;DHT22;12457;50.832;4.346;2023-05-07T10:25:59;18.50;99.90
24338;DHT22;12457;50.832;4.346;2023-05-07T10:28:26;18.60;99.90
24338;DHT22;12457;50.832;4.346;2023-05-07T10:33:52;18.40;99.90
24338;DHT22;12457;50.832;4.346;2023-05-07T10:36:20;18.60;99.90
24338;DHT22;12457;50.832;4.346;2023-05-07T10:38:52;18.80;99.90
24338;DHT22;12457;50.832;4.346;2023-05-07T10:41:18;18.70;99.90
24338;DHT22;12457;50.832;4.346;2023-05-07T10:43:45;18.70;99.90
24338;DHT22;12457;50.832;4.346;2023-05-07T10:46:21;18.80;99.90
24338;DHT22;12457;50.832;4.346;2023-05-07T10:51:35;18.80;99.90
24338;DHT22;12457;50.832;4.346;2023-05-07T10:56:39;19.10;99.90
24338;DHT22;12457;50.832;4.346;2023-05-07T11:02:01;19.00;99.90
24338;DHT22;12457;50.832;4.346;2023-05-07T11:04:31;19.10;99.90
24338;DHT22;12457;50.832;4.346;2023-05-07T11:15:10;19.30;99.90
24338;DHT22;12457;50.832;4.346;2023-05-07T11:17:58;19.40;99.90
24338;DHT22;12457;50.832;4.346;2023-05-07T11:20:46;19.40;99.90
24338;DHT22;12457;50.832;4.346;2023-05-07T11:26:04;19.70;99.90
24338;DHT22;12457;50.832;4.346;2023-05-07T11:28:38;19.70;99.90
24338;DHT22;12457;50.832;4.346;2023-05-07T11:31:04;19.60;99.90
24338;DHT22;12457;50.832;4.346;2023-05-07T11:33:31;19.80;99.90
24338;DHT22;12457;50.832;4.346;2023-05-07T11:35:59;19.80;99.90
24338;DHT22;12457;50.832;4.346;2023-05-07T11:38:25;19.80;99.90
24338;DHT22;12457;50.832;4.346;2023-05-07T11:40:52;19.80;99.90
24338;DHT22;12457;50.832;4.346;2023-05-07T11:43:18;19.90;99.90
24338;DHT22;12457;50.832;4.346;2023-05-07T11:45:48;19.90;99.90
24338;DHT22;12457;50.832;4.346;2023-05-07T11:48:14;20.00;99.90
24338;DHT22;12457;50.832;4.346;2023-05-07T11:50:59;19.90;99.90
24338;DHT22;12457;50.832;4.346;2023-05-07T11:53:25;20.00;99.90
24338;DHT22;12457;50.832;4.346;2023-05-07T11:55:58;19.90;99.90
24338;DHT22;12457;50.832;4.346;2023-05-07T11:58:24;20.00;99.90
24338;DHT22;12457;50.832;4.346;2023-05-07T12:00:54;20.10;99.90
24338;DHT22;12457;50.832;4.346;2023-05-07T12:03:20;20.00;99.90
24338;DHT22;12457;50.832;4.346;2023-05-07T12:05:47;20.00;99.90
24338;DHT22;12457;50.832;4.346;2023-05-07T12:08:19;20.00;99.90
24338;DHT22;12457;50.832;4.346;2023-05-07T12:10:46;19.90;99.90
24338;DHT22;12457;50.832;4.346;2023-05-07T12:13:16;19.90;99.90
24338;DHT22;12457;50.832;4.346;2023-05-07T12:15:42;19.90;99.90
24338;DHT22;12457;50.832;4.346;2023-05-07T12:18:08;20.00;99.90
24338;DHT22;12457;50.832;4.346;2023-05-07T12:20:36;20.00;99.90
24338;DHT22;12457;50.832;4.346;2023-05-07T12:23:02;20.20;99.90
24338;DHT22;12457;50.832;4.346;2023-05-07T12:25:46;20.40;99.90
24338;DHT22;12457;50.832;4.346;2023-05-07T12:28:16;20.60;99.90
24338;DHT22;12457;50.832;4.346;2023-05-07T12:30:47;20.90;99.90
24338;DHT22;12457;50.832;4.346;2023-05-07T12:33:17;21.00;99.90
24338;DHT22;12457;50.832;4.346;2023-05-07T12:35:43;21.20;99.90
24338;DHT22;12457;50.832;4.346;2023-05-07T12:38:13;21.20;99.90
24338;DHT22;12457;50.832;4.346;2023-05-07T12:40:50;21.30;99.90
24338;DHT22;12457;50.832;4.346;2023-05-07T12:43:20;21.20;99.90
24338;DHT22;12457;50.832;4.346;2023-05-07T12:45:51;21.20;99.90
24338;DHT22;12457;50.832;4.346;2023-05-07T12:48:17;21.30;99.90
24338;DHT22;12457;50.832;4.346;2023-05-07T12:50:56;21.50;99.90
24338;DHT22;12457;50.832;4.346;2023-05-07T12:53:24;21.40;99.90
24338;DHT22;12457;50.832;4.346;2023-05-07T12:55:55;21.20;99.90
24338;DHT22;12457;50.832;4.346;2023-05-07T12:58:26;21.30;99.90
24338;DHT22;12457;50.832;4.346;2023-05-07T13:00:54;21.30;99.90
24338;DHT22;12457;50.832;4.346;2023-05-07T13:03:26;21.20;99.90
24338;DHT22;12457;50.832;4.346;2023-05-07T13:05:54;21.30;99.90
24338;DHT22;12457;50.832;4.346;2023-05-07T13:10:56;21.00;99.90
24338;DHT22;12457;50.832;4.346;2023-05-07T13:13:22;21.10;99.90
24338;DHT22;12457;50.832;4.346;2023-05-07T13:15:48;21.30;99.90
24338;DHT22;12457;50.832;4.346;2023-05-07T13:18:14;21.50;99.90
24338;DHT22;12457;50.832;4.346;2023-05-07T13:20:40;21.30;99.90
24338;DHT22;12457;50.832;4.346;2023-05-07T13:23:08;21.40;99.90
24338;DHT22;12457;50.832;4.346;2023-05-07T13:25:34;21.40;99.90
24338;DHT22;12457;50.832;4.346;2023-05-07T13:28:00;21.30;99.90
24338;DHT22;12457;50.832;4.346;2023-05-07T13:30:26;21.30;99.90
24338;DHT22;12457;50.832;4.346;2023-05-07T13:32:53;21.20;99.90
24338;DHT22;12457;50.832;4.346;2023-05-07T13:35:20;21.10;99.90
24338;DHT22;12457;50.832;4.346;2023-05-07T13:37:46;21.00;99.90
24338;DHT22;12457;50.832;4.346;2023-05-07T13:40:13;21.00;99.90
24338;DHT22;12457;50.832;4.346;2023-05-07T13:42:39;20.90;99.90
24338;DHT22;12457;50.832;4.346;2023-05-07T13:45:05;21.00;99.90
24338;DHT22;12457;50.832;4.346;2023-05-07T13:47:31;21.00;99.90
24338;DHT22;12457;50.832;4.346;2023-05-07T13:49:57;20.80;99.90
24338;DHT22;12457;50.832;4.346;2023-05-07T13:52:22;20.60;99.90
24338;DHT22;12457;50.832;4.346;2023-05-07T13:54:51;20.50;99.90
24338;DHT22;12457;50.832;4.346;2023-05-07T13:57:18;20.50;99.90
24338;DHT22;12457;50.832;4.346;2023-05-07T13:59:44;20.60;99.90
24338;DHT22;12457;50.832;4.346;2023-05-07T14:02:10;20.80;99.90
24338;DHT22;12457;50.832;4.346;2023-05-07T14:04:36;20.90;99.90
24338;DHT22;12457;50.832;4.346;2023-05-07T14:07:03;21.10;99.90
24338;DHT22;12457;50.832;4.346;2023-05-07T14:09:56;21.10;99.90
24338;DHT22;12457;50.832;4.346;2023-05-07T14:12:22;21.00;99.90
24338;DHT22;12457;50.832;4.346;2023-05-07T14:14:48;21.00;99.90
24338;DHT22;12457;50.832;4.346;2023-05-07T14:17:18;21.00;99.90
24338;DHT22;12457;50.832;4.346;2023-05-07T14:19:45;21.00;99.90
24338;DHT22;12457;50.832;4.346;2023-05-07T14:22:12;21.20;99.90
24338;DHT22;12457;50.832;4.346;2023-05-07T14:24:38;21.00;99.90
24338;DHT22;12457;50.832;4.346;2023-05-07T14:27:05;20.90;99.90
24338;DHT22;12457;50.832;4.346;2023-05-07T14:29:31;20.90;99.90
24338;DHT22;12457;50.832;4.346;2023-05-07T14:31:56;20.90;99.90
24338;DHT22;12457;50.832;4.346;2023-05-07T14:34:22;20.70;99.90
24338;DHT22;12457;50.832;4.346;2023-05-07T14:36:48;20.60;99.90
24338;DHT22;12457;50.832;4.346;2023-05-07T14:39:14;20.50;99.90
24338;DHT22;12457;50.832;4.346;2023-05-07T14:41:39;20.60;99.90
24338;DHT22;12457;50.832;4.346;2023-05-07T14:44:05;20.50;99.90
24338;DHT22;12457;50.832;4.346;2023-05-07T14:46:32;20.50;99.90
24338;DHT22;12457;50.832;4.346;2023-05-07T14:48:57;20.50;99.90
24338;DHT22;12457;50.832;4.346;2023-05-07T14:51:23;20.60;99.90
24338;DHT22;12457;50.832;4.346;2023-05-07T14:53:50;20.80;99.90
24338;DHT22;12457;50.832;4.346;2023-05-07T14:59:25;20.80;99.90
24338;DHT22;12457;50.832;4.346;2023-05-07T15:01:51;20.90;99.90
24338;DHT22;12457;50.832;4.346;2023-05-07T15:04:16;20.90;99.90
24338;DHT22;12457;50.832;4.346;2023-05-07T15:06:42;21.00;99.90
24338;DHT22;12457;50.832;4.346;2023-05-07T15:09:08;21.00;99.90
24338;DHT22;12457;50.832;4.346;2023-05-07T15:11:34;20.90;99.90
24338;DHT22;12457;50.832;4.346;2023-05-07T15:14:00;20.80;99.90
24338;DHT22;12457;50.832;4.346;2023-05-07T15:16:26;20.70;99.90
24338;DHT22;12457;50.832;4.346;2023-05-07T15:18:51;20.70;99.90
24338;DHT22;12457;50.832;4.346;2023-05-07T15:21:17;20.60;99.90
24338;DHT22;12457;50.832;4.346;2023-05-07T15:23:43;20.70;99.90
24338;DHT22;12457;50.832;4.346;2023-05-07T15:26:14;20.70;99.90
24338;DHT22;12457;50.832;4.346;2023-05-07T15:28:40;20.70;99.90
24338;DHT22;12457;50.832;4.346;2023-05-07T15:31:06;20.60;99.90
24338;DHT22;12457;50.832;4.346;2023-05-07T15:33:32;20.70;99.90
24338;DHT22;12457;50.832;4.346;2023-05-07T15:35:58;20.60;99.90
24338;DHT22;12457;50.832;4.346;2023-05-07T15:38:28;20.50;99.90
24338;DHT22;12457;50.832;4.346;2023-05-07T15:40:55;20.60;99.90
24338;DHT22;12457;50.832;4.346;2023-05-07T15:43:21;20.70;99.90
24338;DHT22;12457;50.832;4.346;2023-05-07T15:45:47;20.80;99.90
24338;DHT22;12457;50.832;4.346;2023-05-07T15:48:13;20.80;99.90
24338;DHT22;12457;50.832;4.346;2023-05-07T15:50:38;20.80;99.90
24338;DHT22;12457;50.832;4.346;2023-05-07T15:53:07;20.80;99.90
24338;DHT22;12457;50.832;4.346;2023-05-07T15:55:33;20.70;99.90
24338;DHT22;12457;50.832;4.346;2023-05-07T15:57:59;20.70;99.90
24338;DHT22;12457;50.832;4.346;2023-05-07T16:00:26;20.70;99.90
24338;DHT22;12457;50.832;4.346;2023-05-07T16:02:55;20.60;99.90
24338;DHT22;12457;50.832;4.346;2023-05-07T16:05:21;20.40;99.90
24338;DHT22;12457;50.832;4.346;2023-05-07T16:07:46;20.40;99.90
24338;DHT22;12457;50.832;4.346;2023-05-07T16:10:13;20.20;99.90
24338;DHT22;12457;50.832;4.346;2023-05-07T16:12:39;20.10;99.90